Latest Weather Observations for Port Lincoln Airport

IDS60801

Issued at 9:42 pm CST Thursday 24 September 2020 (issued every 10 minutes, with the page automatically refreshed every 10 minutes)

About weather observations | Map of weather stations | Latest weather observations for SA | Other Formats
Station Details ID: 018192 Name: PORT LINCOLN AWS Lat: -34.60 Lon: 135.88 Height: 8.5 m
Data from the previous 72 hours. | See also: Recent months at Port Lincoln Airport
Date/Time
CST
Temp
°C
App
Temp
°C
Dew
Point
°C
Rel
Hum
%
Delta-T
°C
Wind Press
QNH
hPa
Press
MSL
hPa
Rain since
9am
mm
Dir  Spd
km/h
Gust
km/h
Spd
kts
Gust
kts
24/09:30pm 6.7 3.1 4.9 88 0.8 WSW 13 17 7 9 1011.7 1011.7 5.4
24/09:00pm 7.7 1.7 5.5 86 1.0 SSW 26 37 14 20 1011.9 1011.9 5.4
24/08:49pm 8.0 0.8 5.1 82 1.3 SW 32 48 17 26 1011.8 1011.8 5.4
24/08:42pm 7.9 2.7 5.5 85 1.1 W 22 48 12 26 1011.7 1011.7 5.4
24/08:30pm 7.3 3.0 5.3 87 0.9 W 17 20 9 11 1011.6 1011.6 5.4
24/08:00pm 8.1 4.4 6.1 87 0.9 W 15 19 8 10 1011.6 1011.6 5.4
24/07:30pm 8.2 3.4 5.8 85 1.1 W 20 28 11 15 1011.4 1011.4 5.4
24/07:00pm 8.1 3.5 6.6 90 0.7 W 20 26 11 14 1011.6 1011.6 5.2
24/06:30pm 8.1 2.9 5.7 85 1.1 WSW 22 32 12 17 1011.6 1011.6 4.4
24/06:04pm 7.9 2.3 5.5 85 1.1 WSW 24 33 13 18 1011.5 1011.5 4.4
24/06:00pm 7.9 2.0 5.7 86 1.0 WSW 26 43 14 23 1011.7 1011.7 4.4
24/05:51pm 7.7 0.7 5.8 88 0.9 SW 32 50 17 27 1012.0 1012.0 4.4
24/05:45pm 8.1 2.5 5.6 84 1.1 WSW 24 50 13 27 1012.1 1012.1 4.0
24/05:44pm 8.1 3.2 5.0 81 1.4 WSW 20 50 11 27 1012.1 1012.1 3.6
24/05:30pm 9.9 6.5 7.5 85 1.1 WSW 15 20 8 11 1011.5 1011.5 3.2
24/05:00pm 10.2 5.4 7.4 83 1.3 WSW 22 32 12 17 1011.5 1011.5 3.2
24/04:30pm 9.8 4.3 7.4 85 1.1 W 26 35 14 19 1011.7 1011.7 3.2
24/04:15pm 9.1 3.9 7.4 89 0.8 W 24 32 13 17 1011.7 1011.7 3.2
24/04:00pm 8.2 -1.0 6.5 89 0.8 WSW 44 74 24 40 1012.2 1012.2 3.0
24/03:55pm 8.4 -0.4 5.7 83 1.2 WSW 41 74 22 40 1012.1 1012.1 2.4
24/03:54pm 8.4 -0.1 5.2 80 1.4 WSW 39 74 21 40 1012.1 1012.1 2.2
24/03:53pm 9.0 0.8 5.0 76 1.8 WSW 37 74 20 40 1012.0 1012.0 2.0
24/03:51pm 11.7 4.9 6.8 72 2.3 WSW 32 57 17 31 1011.9 1011.9 1.6
24/03:30pm 11.4 5.1 7.3 76 2.0 WSW 30 39 16 21 1011.5 1011.5 1.6
24/03:01pm 10.6 2.3 6.0 73 2.1 WSW 39 61 21 33 1012.0 1012.0 1.4
24/03:00pm 11.3 3.5 6.6 73 2.2 WSW 37 50 20 27 1012.0 1012.0 1.4
24/02:36pm 12.9 5.5 6.7 66 3.0 WSW 35 54 19 29 1011.8 1011.8 1.4
24/02:30pm 12.2 5.7 8.9 80 1.7 W 33 50 18 27 1012.0 1012.0 1.4
24/02:09pm 11.7 2.6 6.6 71 2.4 WSW 44 65 24 35 1012.2 1012.2 1.2
24/02:00pm 13.9 6.4 7.9 67 3.0 WSW 37 52 20 28 1012.2 1012.2 1.2
24/01:36pm 13.5 5.3 6.6 63 3.3 WSW 39 57 21 31 1012.3 1012.3 1.2
24/01:30pm 14.1 5.9 6.7 61 3.6 W 39 50 21 27 1012.3 1012.3 1.2
24/01:00pm 14.4 6.4 7.5 63 3.4 WSW 39 54 21 29 1012.6 1012.6 1.2
24/12:47pm 14.1 6.1 7.6 65 3.2 W 39 59 21 32 1012.6 1012.6 1.2
24/12:30pm 13.8 6.3 8.0 68 2.9 W 37 50 20 27 1012.9 1012.9 1.2
24/12:00pm 13.7 7.6 9.7 77 2.1 WSW 32 46 17 25 1013.4 1013.4 1.2
24/11:30am 11.9 6.3 10.3 90 0.8 WSW 30 46 16 25 1014.0 1014.0 1.2
24/11:28am 12.2 7.2 10.8 91 0.7 WSW 28 39 15 21 1014.1 1014.1 1.2
24/11:16am 11.7 5.6 10.4 92 0.7 W 33 43 18 23 1014.3 1014.3 1.2
24/11:05am 11.4 5.8 10.3 93 0.6 WNW 30 44 16 24 1014.6 1014.6 1.0
24/11:00am 11.6 5.7 10.3 92 0.7 WNW 32 43 17 23 1014.7 1014.7 0.6
24/10:51am 11.8 5.9 10.4 91 0.7 WNW 32 43 17 23 1014.7 1014.7 0.4
24/10:41am 12.0 6.8 10.2 89 0.9 WNW 28 46 15 25 1014.7 1014.7 0.4
24/10:30am 12.0 6.4 10.1 88 1.0 WNW 30 44 16 24 1014.8 1014.8 0.2
24/10:00am 11.9 4.7 9.3 84 1.3 WNW 37 56 20 30 1015.4 1015.4 0.2
24/09:51am 13.0 6.2 7.9 71 2.5 WNW 33 54 18 29 1015.4 1015.4 0.0
24/09:30am 13.4 6.9 8.0 70 2.7 WNW 32 43 17 23 1015.6 1015.6 0.0
24/09:00am 13.6 9.7 9.6 77 2.0 WNW 20 28 11 15 1016.0 1016.0 3.8
24/08:30am 12.0 8.0 9.2 83 1.4 NW 20 30 11 16 1016.6 1016.6 3.8
24/08:00am 10.4 7.7 8.8 90 0.8 NNW 13 17 7 9 1016.9 1016.9 3.8
24/07:30am 9.2 5.8 7.8 91 0.7 NNW 15 19 8 10 1017.2 1017.2 3.8
24/07:00am 8.5 5.4 7.3 92 0.6 NNW 13 19 7 10 1017.4 1017.4 3.8
24/06:30am 8.3 5.2 7.2 93 0.5 WNW 13 15 7 8 1017.7 1017.7 3.8
24/06:00am 7.6 4.4 6.9 95 0.3 NW 13 17 7 9 1017.5 1017.5 3.8
24/05:30am 7.8 5.0 7.1 95 0.3 WNW 11 13 6 7 1017.5 1017.5 3.8
24/05:00am 6.5 3.1 5.8 95 0.3 WNW 13 15 7 8 1017.5 1017.5 3.6
24/04:30am 6.1 2.9 5.2 94 0.4 NW 11 13 6 7 1017.8 1017.8 3.6
24/04:00am 7.6 4.7 6.7 94 0.4 NW 11 13 6 7 1018.1 1018.1 3.6
24/03:30am 8.0 5.2 6.9 93 0.5 NW 11 15 6 8 1018.6 1018.6 3.6
24/03:22am 8.4 5.3 7.3 93 0.5 WNW 13 15 7 8 1018.8 1018.8 3.6
24/03:04am 8.9 3.8 7.8 93 0.5 W 24 32 13 17 1019.1 1019.1 3.2
24/03:00am 8.7 4.6 7.8 94 0.4 W 19 32 10 17 1019.0 1019.0 3.0
24/02:30am 7.9 5.0 6.5 91 0.6 NW 11 15 6 8 1019.1 1019.1 3.0
24/02:00am 8.8 5.0 7.4 91 0.7 W 17 20 9 11 1019.7 1019.7 3.0
24/01:30am 8.2 5.4 6.8 91 0.6 WSW 11 13 6 7 1020.0 1020.0 3.0
24/01:00am 8.6 5.2 7.5 93 0.5 WNW 15 19 8 10 1020.5 1020.5 3.0
24/12:30am 8.7 5.7 7.6 93 0.5 NW 13 15 7 8 1020.6 1020.6 3.0
24/12:00am 9.6 6.8 8.4 92 0.6 WSW 13 19 7 10 1020.8 1020.8 3.0
 
Date/Time
CST
Temp
°C
App
Temp
°C
Dew
Point
°C
Rel
Hum
%
Delta-T
°C
Wind Press
QNH
hPa
Press
MSL
hPa
Rain since
9am
mm
Dir  Spd
km/h
Gust
km/h
Spd
kts
Gust
kts
23/11:30pm 9.3 6.3 7.9 91 0.7 WSW 13 15 7 8 1021.3 1021.3 3.0
23/11:00pm 9.1 4.8 7.2 88 0.9 W 19 20 10 11 1021.5 1021.5 3.0
23/10:30pm 9.2 5.0 7.5 89 0.8 WSW 19 24 10 13 1021.7 1021.7 3.0
23/10:00pm 9.0 5.1 7.3 89 0.8 W 17 20 9 11 1021.9 1021.9 3.0
23/09:30pm 9.4 4.3 7.8 90 0.8 WSW 24 32 13 17 1022.3 1022.3 3.0
23/09:00pm 9.3 5.5 7.4 88 0.9 W 17 20 9 11 1022.3 1022.3 3.0
23/08:30pm 9.5 5.5 8.1 91 0.7 WSW 19 28 10 15 1022.3 1022.3 3.0
23/08:00pm 9.7 6.5 8.3 91 0.7 SW 15 20 8 11 1022.5 1022.5 3.0
23/07:30pm 8.9 5.9 7.7 92 0.6 WSW 13 17 7 9 1022.3 1022.3 3.0
23/07:00pm 9.1 6.1 7.7 91 0.7 WSW 13 17 7 9 1022.0 1022.0 3.0
23/06:30pm 9.6 6.7 8.0 90 0.8 W 13 15 7 8 1021.8 1021.8 3.0
23/06:00pm 10.5 7.3 8.3 86 1.1 WSW 15 20 8 11 1021.7 1021.7 3.0
23/05:30pm 11.1 7.7 9.0 87 1.0 SW 17 22 9 12 1021.7 1021.7 3.0
23/05:00pm 11.8 8.3 10.2 90 0.8 SW 19 26 10 14 1021.7 1021.7 2.8
23/04:34pm 11.2 6.2 9.6 90 0.8 WSW 26 35 14 19 1021.5 1021.5 2.8
23/04:30pm 11.2 5.9 9.8 91 0.7 WSW 28 39 15 21 1021.5 1021.5 2.8
23/04:14pm 11.7 6.8 9.8 88 1.0 WSW 26 35 14 19 1021.4 1021.4 2.6
23/04:00pm 13.0 9.4 10.7 86 1.2 WSW 20 32 11 17 1021.2 1021.2 2.6
23/03:30pm 12.8 8.7 10.0 83 1.4 SW 22 35 12 19 1021.1 1021.1 2.4
23/03:06pm 13.3 8.7 11.2 87 1.1 WSW 26 35 14 19 1021.0 1021.0 2.4
23/03:00pm 12.6 8.4 11.0 90 0.8 WSW 24 33 13 18 1021.2 1021.2 2.4
23/02:47pm 11.9 6.7 10.3 90 0.8 SW 28 37 15 20 1021.3 1021.3 2.2
23/02:30pm 14.2 9.1 10.6 79 1.9 WSW 28 41 15 22 1021.0 1021.0 2.0
23/02:00pm 12.9 7.2 11.1 89 0.9 WSW 32 44 17 24 1021.2 1021.2 2.0
23/01:46pm 12.7 7.7 11.1 90 0.8 SW 28 46 15 25 1021.4 1021.4 2.0
23/01:31pm 13.1 8.3 11.7 91 0.7 WSW 28 41 15 22 1021.3 1021.3 1.8
23/01:30pm 13.1 8.3 11.8 92 0.7 WSW 28 41 15 22 1021.3 1021.3 1.8
23/01:07pm 12.4 7.0 10.8 90 0.8 SW 30 39 16 21 1021.4 1021.4 1.0
23/01:00pm 13.0 6.9 10.4 84 1.3 WSW 33 44 18 24 1021.4 1021.4 1.0
23/12:30pm 13.4 8.0 10.8 84 1.4 SW 30 41 16 22 1021.5 1021.5 1.0
23/12:00pm 14.4 9.9 10.2 76 2.2 WSW 24 39 13 21 1021.4 1021.4 0.8
23/11:30am 14.2 8.1 9.6 74 2.4 WSW 32 41 17 22 1021.4 1021.4 0.8
23/11:14am 12.6 9.1 10.3 86 1.2 WSW 19 26 10 14 1021.6 1021.6 0.8
23/11:01am 11.5 5.3 9.2 86 1.2 WSW 32 46 17 25 1021.8 1021.8 0.6
23/11:00am 11.3 5.4 8.9 85 1.2 WSW 30 46 16 25 1021.8 1021.8 0.6
23/10:30am 11.7 5.3 8.6 81 1.5 WSW 32 52 17 28 1021.8 1021.8 0.4
23/10:04am 12.2 6.5 8.5 78 1.8 SW 28 50 15 27 1021.6 1021.6 0.2
23/10:00am 14.3 9.6 9.1 71 2.6 SW 24 35 13 19 1021.4 1021.4 0.0
23/09:30am 14.4 9.8 9.6 73 2.5 SW 24 35 13 19 1021.2 1021.2 0.0
23/09:00am 12.0 8.4 9.7 86 1.2 WSW 19 28 10 15 1021.2 1021.2 1.8
23/08:30am 10.9 6.2 9.3 90 0.8 SW 24 39 13 21 1021.1 1021.1 1.8
23/08:00am 11.0 7.8 9.9 93 0.6 WSW 17 20 9 11 1020.8 1020.8 1.6
23/07:55am 10.8 7.1 9.6 92 0.6 WSW 19 28 10 15 1020.8 1020.8 1.6
23/07:39am 10.7 6.4 9.3 91 0.7 WSW 22 32 12 17 1020.6 1020.6 1.6
23/07:30am 10.9 7.2 9.5 91 0.7 W 19 26 10 14 1020.5 1020.5 1.4
23/07:00am 10.0 5.9 8.8 92 0.6 W 20 26 11 14 1020.1 1020.1 1.4
23/06:30am 9.5 5.5 8.3 92 0.6 W 19 22 10 12 1019.7 1019.7 1.4
23/06:00am 9.6 5.4 8.4 92 0.6 W 20 28 11 15 1019.4 1019.4 1.2
23/05:30am 9.2 4.9 7.8 91 0.7 W 20 26 11 14 1019.0 1019.0 1.2
23/05:00am 8.7 5.3 7.5 92 0.6 WSW 15 17 8 9 1018.9 1018.9 1.2
23/04:30am 9.3 5.6 8.1 92 0.6 W 17 20 9 11 1018.8 1018.8 1.2
23/04:00am 9.7 5.6 8.5 92 0.6 W 20 26 11 14 1018.5 1018.5 1.2
23/03:30am 9.2 5.1 7.8 91 0.7 W 19 24 10 13 1018.4 1018.4 0.8
23/03:00am 9.3 5.5 7.6 89 0.8 W 17 22 9 12 1018.4 1018.4 0.8
23/02:30am 9.5 5.8 7.9 90 0.8 W 17 20 9 11 1018.5 1018.5 0.8
23/02:00am 9.6 5.9 7.9 89 0.8 W 17 22 9 12 1018.6 1018.6 0.8
23/01:30am 9.5 4.8 7.6 88 0.9 W 22 30 12 16 1018.4 1018.4 0.8
23/01:09am 9.4 5.0 7.5 88 0.9 WNW 20 24 11 13 1018.5 1018.5 0.8
23/01:00am 10.1 4.4 8.2 88 0.9 W 28 41 15 22 1018.6 1018.6 0.8
23/12:57am 10.2 4.5 8.3 88 0.9 W 28 41 15 22 1018.6 1018.6 0.6
23/12:54am 10.1 4.7 8.0 87 1.0 W 26 41 14 22 1018.6 1018.6 0.6
23/12:30am 9.6 6.0 6.9 83 1.3 WNW 15 19 8 10 1018.5 1018.5 0.4
23/12:00am 9.7 6.5 7.0 83 1.3 WNW 13 19 7 10 1018.7 1018.7 0.4
 
Date/Time
CST
Temp
°C
App
Temp
°C
Dew
Point
°C
Rel
Hum
%
Delta-T
°C
Wind Press
QNH
hPa
Press
MSL
hPa
Rain since
9am
mm
Dir  Spd
km/h
Gust
km/h
Spd
kts
Gust
kts
22/11:30pm 9.9 6.7 7.0 82 1.4 W 13 17 7 9 1018.7 1018.7 0.4
22/11:00pm 10.3 5.9 6.5 77 1.8 W 19 20 10 11 1018.8 1018.8 0.2
22/10:30pm 9.6 4.8 5.8 77 1.7 W 20 28 11 15 1018.5 1018.5 0.2
22/10:00pm 9.6 4.9 6.0 78 1.7 W 20 24 11 13 1018.5 1018.5 0.2
22/09:30pm 9.6 5.2 6.7 82 1.4 W 19 24 10 13 1018.5 1018.5 0.2
22/09:00pm 9.5 5.4 7.8 89 0.8 W 19 20 10 11 1018.3 1018.3 0.2
22/08:30pm 9.7 6.0 7.8 88 0.9 W 17 19 9 10 1018.3 1018.3 0.2
22/08:00pm 10.5 6.2 7.7 83 1.3 W 20 24 11 13 1017.9 1017.9 0.2
22/07:30pm 11.4 6.1 8.4 82 1.5 WSW 26 33 14 18 1017.5 1017.5 0.2
22/07:00pm 11.3 6.9 7.6 78 1.8 W 20 26 11 14 1017.1 1017.1 0.2
22/06:30pm 11.7 7.2 6.8 72 2.3 W 20 28 11 15 1016.7 1016.7 0.2
22/06:00pm 12.7 7.4 7.0 68 2.7 W 24 32 13 17 1016.3 1016.3 0.2
22/05:30pm 13.8 7.0 6.7 62 3.4 W 32 43 17 23 1015.9 1015.9 0.2
22/05:00pm 14.1 6.8 7.4 64 3.3 W 35 50 19 27 1015.5 1015.5 0.2
22/04:30pm 14.0 6.8 7.5 65 3.2 W 35 46 19 25 1015.4 1015.4 0.2
22/04:00pm 14.7 6.5 8.4 66 3.2 W 41 56 22 30 1015.1 1015.1 0.2
22/03:54pm 14.3 7.2 8.0 66 3.1 W 35 54 19 29 1015.1 1015.1 0.2
22/03:30pm 13.3 7.1 9.5 78 1.9 W 32 43 17 23 1015.2 1015.2 0.2
22/03:00pm 14.2 6.0 8.4 68 2.9 W 41 63 22 34 1014.9 1014.9 0.2
22/02:49pm 15.4 8.5 8.9 65 3.3 W 35 54 19 29 1014.7 1014.7 0.2
22/02:30pm 15.1 7.1 9.0 67 3.1 W 41 52 22 28 1014.7 1014.7 0.2
22/02:00pm 16.5 9.3 9.0 61 3.9 W 37 56 20 30 1014.4 1014.4 0.2
22/01:55pm 16.5 9.5 8.5 59 4.1 W 35 54 19 29 1014.4 1014.4 0.2
22/01:30pm 15.3 8.1 9.2 67 3.1 WNW 37 48 20 26 1014.4 1014.4 0.2
22/01:16pm 14.0 8.2 10.8 81 1.7 W 32 50 17 27 1014.6 1014.6 0.2
22/01:00pm 15.4 8.6 10.6 73 2.5 W 37 50 20 27 1014.3 1014.3 0.2
22/12:30pm 14.9 8.1 10.7 76 2.2 W 37 50 20 27 1014.2 1014.2 0.2
22/12:00pm 12.8 5.1 10.2 84 1.3 WSW 41 59 22 32 1014.3 1014.3 0.2
22/11:37am 15.8 7.6 8.3 61 3.8 W 41 59 22 32 1014.1 1014.1 0.2
22/11:30am 16.0 7.7 9.2 64 3.5 W 43 54 23 29 1014.0 1014.0 0.2
22/11:11am 14.9 8.4 10.3 74 2.4 W 35 54 19 29 1014.1 1014.1 0.2
22/11:05am 14.0 7.2 10.8 81 1.7 W 37 54 20 29 1014.2 1014.2 0.2
22/11:00am 13.0 6.1 10.4 84 1.3 WSW 37 52 20 28 1014.2 1014.2 0.2
22/10:51am 12.7 5.4 10.2 85 1.3 W 39 50 21 27 1014.2 1014.2 0.2
22/10:30am 15.7 7.1 8.0 60 3.9 WNW 43 56 23 30 1013.6 1013.6 0.0
22/10:00am 13.3 6.2 9.5 78 1.9 W 37 57 20 31 1013.8 1013.8 0.0
22/09:55am 14.5 6.6 8.0 65 3.2 W 39 57 21 31 1013.6 1013.6 0.0
22/09:30am 14.4 6.1 7.9 65 3.2 W 41 56 22 30 1013.3 1013.3 0.0
22/09:06am 14.8 8.6 9.2 69 2.9 W 32 50 17 27 1013.2 1013.2 0.0
22/09:00am 14.1 7.2 8.7 70 2.7 W 35 50 19 27 1013.1 1013.1 3.4
22/08:30am 13.6 7.6 8.7 72 2.5 W 30 46 16 25 1012.8 1012.8 3.4
22/08:13am 13.4 7.9 9.1 75 2.2 W 28 46 15 25 1012.5 1012.5 3.4
22/08:00am 13.2 8.8 9.1 76 2.1 WNW 22 30 12 16 1012.3 1012.3 3.4
22/07:30am 12.4 8.5 8.7 78 1.8 W 19 28 10 15 1011.8 1011.8 3.4
22/07:05am 11.8 6.0 7.9 77 1.9 W 28 46 15 25 1011.3 1011.3 3.4
22/07:00am 11.7 6.7 8.2 79 1.7 W 24 39 13 21 1011.3 1011.3 3.4
22/06:30am 10.7 6.4 7.9 83 1.4 W 20 33 11 18 1010.8 1010.8 3.4
22/06:00am 10.7 6.5 7.6 81 1.5 W 19 26 10 14 1010.2 1010.2 3.4
22/05:30am 11.0 5.9 7.7 80 1.6 W 24 35 13 19 1009.8 1009.8 3.4
22/05:00am 11.1 6.2 8.5 84 1.3 W 24 35 13 19 1009.5 1009.5 3.4
22/04:30am 11.0 6.0 8.1 82 1.4 W 24 41 13 22 1009.1 1009.1 3.4
22/04:00am 10.8 3.2 7.7 81 1.5 W 37 59 20 32 1008.7 1008.7 3.4
22/03:50am 11.0 5.4 8.6 85 1.2 W 28 50 15 27 1008.8 1008.8 3.4
22/03:30am 10.7 5.1 8.6 87 1.0 W 28 41 15 22 1008.5 1008.5 3.4
22/03:29am 10.6 4.6 8.5 87 1.0 W 30 41 16 22 1008.5 1008.5 3.4
22/03:23am 10.6 4.0 8.5 87 1.0 W 33 52 18 28 1008.6 1008.6 3.4
22/03:18am 11.0 4.2 9.1 88 0.9 W 35 52 19 28 1008.6 1008.6 3.4
22/03:15am 11.2 4.7 9.1 87 1.0 W 33 52 18 28 1008.6 1008.6 3.4
22/03:00am 11.1 4.5 8.5 84 1.3 W 33 48 18 26 1008.4 1008.4 3.0
22/02:30am 11.1 4.7 9.2 88 1.0 WNW 33 43 18 23 1008.5 1008.5 3.0
22/02:01am 11.2 5.3 9.1 87 1.0 WNW 30 50 16 27 1008.5 1008.5 3.0
22/02:00am 11.2 5.3 9.1 87 1.0 WNW 30 43 16 23 1008.5 1008.5 3.0
22/01:30am 10.9 4.0 8.8 87 1.0 W 35 50 19 27 1008.5 1008.5 3.0
22/01:22am 10.8 3.9 8.7 87 1.0 WNW 35 48 19 26 1008.5 1008.5 3.0
22/01:03am 11.4 4.7 9.5 88 1.0 WNW 35 50 19 27 1008.9 1008.9 2.6
22/01:00am 11.5 5.1 9.4 87 1.1 WNW 33 50 18 27 1008.7 1008.7 2.2
22/12:30am 11.4 4.1 8.8 84 1.3 WNW 37 57 20 31 1008.7 1008.7 2.0
22/12:00am 11.2 5.2 8.6 84 1.3 WNW 30 41 16 22 1008.8 1008.8 2.0
 
Date/Time
CST
Temp
°C
App
Temp
°C
Dew
Point
°C
Rel
Hum
%
Delta-T
°C
Wind Press
QNH
hPa
Press
MSL
hPa
Rain since
9am
mm
Dir  Spd
km/h
Gust
km/h
Spd
kts
Gust
kts
21/11:30pm 11.4 5.4 8.8 84 1.3 WNW 30 41 16 22 1008.7 1008.7 2.0
21/11:00pm 11.2 3.8 8.2 82 1.5 W 37 56 20 30 1008.8 1008.8 2.0
21/10:55pm 11.4 5.4 8.6 83 1.4 W 30 56 16 30 1009.0 1009.0 2.0
21/10:30pm 11.7 6.2 9.1 84 1.3 WNW 28 39 15 21 1008.9 1008.9 1.8
21/10:13pm 11.4 6.3 9.1 86 1.1 WNW 26 37 14 20 1008.9 1008.9 1.8
21/10:01pm 11.5 4.7 9.2 86 1.2 WNW 35 54 19 29 1009.0 1009.0 1.8
21/10:00pm 11.6 4.4 9.3 86 1.2 WNW 37 54 20 29 1009.0 1009.0 1.8
21/09:52pm 12.5 6.6 9.0 79 1.8 WNW 30 48 16 26 1008.9 1008.9 1.8
21/09:51pm 12.4 6.5 8.9 79 1.8 W 30 46 16 25 1008.9 1008.9 1.8

Other formats

Comma delimited format used in spreadsheet applications
http://www.bom.gov.au/fwo/IDS60801/IDS60801.95661.axf

JavaScript Object Notation format (JSON) in row-major order
http://www.bom.gov.au/fwo/IDS60801/IDS60801.95661.json

Data quality

Most of these data are generated automatically and are frequently updated. Quality checks on data are not normally performed. It is possible for incorrect values to appear. Refer to information at About Latest Weather Observations and please check the disclaimer before using these data.